Time;durP1;ratioP1;P1;durP2;ratioP2;P2;SDS_P1;SDS_P2;PMS_P1;PMS_P2;Temp;Humidity;BMP_temperature;BMP_pressure;BME280_temperature;BME280_humidity;BME280_pressure;Samples;Min_cycle;Max_cycle;Signal;HPM_P1;HPM_P2
2023/08/25 00:01:45;;;;;;;0.30;0.25;;;;;;;;;;5004249;28;20041;-87
2023/08/25 00:04:21;;;;;;;;;;;;;;;;;;;;;
2023/08/25 00:07:05;;;;;;;0.20;0.10;;;;;;;;;;5021894;28;20481;-85
2023/08/25 00:09:33;;;;;;;0.73;0.38;;;;;;;;;;5008448;28;20513;-84
2023/08/25 00:12:05;;;;;;;0.20;0.20;;;;;;;;;;5022357;28;20045;-86
2023/08/25 00:14:35;;;;;;;0.30;0.30;;;;;;;;;;5026438;28;21875;-85
2023/08/25 00:17:21;;;;;;;0.47;0.47;;;;;;;;;;5021201;28;20029;-86
2023/08/25 00:19:49;;;;;;;0.93;0.60;;;;;;;;;;5005765;28;20129;-86
2023/08/25 00:22:18;;;;;;;0.20;0.20;;;;;;;;;;5006156;28;20076;-85
2023/08/25 00:24:47;;;;;;;0.60;0.50;;;;;;;;;;5023257;28;20046;-84
2023/08/25 00:27:24;;;;;;;0.40;0.28;;;;;;;;;;5005507;28;20037;-84
2023/08/25 00:29:53;;;;;;;0.30;0.30;;;;;;;;;;5006884;28;20040;-83
2023/08/25 00:32:20;;;;;;;0.20;0.20;;;;;;;;;;5022731;28;20076;-84
2023/08/25 00:34:49;;;;;;;0.20;0.20;;;;;;;;;;5007532;28;20037;-86
2023/08/25 00:37:15;;;;;;;0.20;0.10;;;;;;;;;;5009658;28;20045;-86
2023/08/25 00:39:41;;;;;;;0.40;0.28;;;;;;;;;;5001862;28;20045;-86
2023/08/25 00:42:07;;;;;;;0.20;0.10;;;;;;;;;;5006013;28;20185;-84
2023/08/25 00:44:33;;;;;;;0.52;0.52;;;;;;;;;;5017530;28;20034;-86
2023/08/25 00:47:03;;;;;;;0.20;0.10;;;;;;;;;;5017003;28;21810;-86
2023/08/25 00:49:32;;;;;;;0.57;0.20;;;;;;;;;;5000128;28;20037;-85
2023/08/25 00:52:03;;;;;;;0.20;0.10;;;;;;;;;;5016636;28;20037;-85
2023/08/25 00:54:34;;;;;;;0.25;0.20;;;;;;;;;;5002099;28;20603;-86
2023/08/25 00:57:01;;;;;;;0.25;0.25;;;;;;;;;;5000550;28;20042;-86
2023/08/25 00:59:27;;;;;;;0.57;0.40;;;;;;;;;;5015074;28;20034;-84
2023/08/25 01:02:09;;;;;;;0.30;0.15;;;;;;;;;;5001048;28;20038;-84
2023/08/25 01:04:35;;;;;;;0.40;0.28;;;;;;;;;;4994457;28;20041;-86
2023/08/25 01:07:01;;;;;;;0.20;0.10;;;;;;;;;;5010500;28;20079;-86
2023/08/25 01:09:28;;;;;;;0.45;0.45;;;;;;;;;;5003383;28;20584;-86
2023/08/25 01:12:04;;;;;;;0.20;0.10;;;;;;;;;;5001000;28;20037;-85
2023/08/25 01:14:34;;;;;;;1.27;0.73;;;;;;;;;;5012234;28;20049;-85
2023/08/25 01:17:30;;;;;;;0.30;0.30;;;;;;;;;;5002400;28;20045;-87
2023/08/25 01:19:59;;;;;;;0.20;0.10;;;;;;;;;;5022767;28;20037;-87
2023/08/25 01:22:28;;;;;;;0.20;0.15;;;;;;;;;;5018600;28;20104;-84
2023/08/25 01:24:58;;;;;;;0.50;0.40;;;;;;;;;;5031554;28;21072;-84
2023/08/25 01:27:36;;;;;;;0.55;0.55;;;;;;;;;;5003601;28;20045;-85
2023/08/25 01:30:02;;;;;;;0.30;0.20;;;;;;;;;;5018071;28;20124;-85
2023/08/25 01:32:31;;;;;;;0.20;0.20;;;;;;;;;;5016323;28;20042;-84
2023/08/25 01:35:04;;;;;;;1.10;0.98;;;;;;;;;;5018751;28;20045;-85
2023/08/25 01:37:33;;;;;;;0.77;0.40;;;;;;;;;;5016807;28;20040;-83
2023/08/25 01:40:04;;;;;;;0.20;0.10;;;;;;;;;;5007002;28;20776;-84
2023/08/25 01:42:37;;;;;;;0.40;0.30;;;;;;;;;;5007039;28;20049;-86
2023/08/25 01:45:09;;;;;;;0.20;0.10;;;;;;;;;;5001814;28;20045;-82
2023/08/25 01:47:40;;;;;;;0.85;0.47;;;;;;;;;;5007553;28;20049;-85
2023/08/25 01:50:08;;;;;;;0.20;0.10;;;;;;;;;;5014433;28;20506;-85
2023/08/25 01:52:37;;;;;;;0.20;0.20;;;;;;;;;;5000524;28;20052;-86
2023/08/25 01:55:03;;;;;;;0.20;0.10;;;;;;;;;;5017297;28;20042;-86
2023/08/25 01:57:32;;;;;;;0.73;0.73;;;;;;;;;;5004586;28;20038;-86
2023/08/25 02:00:02;;;;;;;0.47;0.38;;;;;;;;;;5004898;28;20068;-86
2023/08/25 02:02:30;;;;;;;0.30;0.30;;;;;;;;;;5016717;28;20814;-84
2023/08/25 02:05:02;;;;;;;0.32;0.28;;;;;;;;;;5016741;28;20042;-86
2023/08/25 02:07:44;;;;;;;0.25;0.25;;;;;;;;;;5009183;28;20059;-86
2023/08/25 02:10:15;;;;;;;0.65;0.57;;;;;;;;;;5016455;28;20042;-86
2023/08/25 02:12:47;;;;;;;0.30;0.20;;;;;;;;;;5007901;28;20049;-85
2023/08/25 02:15:13;;;;;;;0.95;0.65;;;;;;;;;;5048327;22;20061;-82
2023/08/25 02:17:40;;;;;;;0.30;0.25;;;;;;;;;;5016349;28;20045;-80
2023/08/25 02:20:07;;;;;;;0.20;0.20;;;;;;;;;;5018372;28;20080;-80
2023/08/25 02:22:33;;;;;;;0.20;0.20;;;;;;;;;;5011411;28;20136;-80
2023/08/25 02:24:59;;;;;;;0.30;0.30;;;;;;;;;;5022333;28;20041;-80
2023/08/25 02:27:25;;;;;;;0.30;0.25;;;;;;;;;;4996136;28;20558;-81
2023/08/25 02:29:52;;;;;;;0.22;0.13;;;;;;;;;;5012246;28;20076;-82
2023/08/25 02:32:18;;;;;;;0.52;0.52;;;;;;;;;;5011825;28;20041;-81
2023/08/25 02:34:44;;;;;;;0.95;0.50;;;;;;;;;;5014922;28;20045;-81
2023/08/25 02:37:10;;;;;;;0.28;0.28;;;;;;;;;;5007934;28;20457;-81
2023/08/25 02:39:37;;;;;;;0.55;0.55;;;;;;;;;;4996625;28;20048;-80
2023/08/25 02:42:03;;;;;;;0.20;0.20;;;;;;;;;;5006770;28;20041;-83
2023/08/25 02:44:29;;;;;;;0.20;0.10;;;;;;;;;;5011924;28;20041;-82
2023/08/25 02:46:55;;;;;;;0.85;0.57;;;;;;;;;;5013318;28;20041;-82
2023/08/25 02:49:21;;;;;;;0.20;0.10;;;;;;;;;;5014253;28;20415;-81
2023/08/25 02:51:47;;;;;;;0.50;0.50;;;;;;;;;;5017702;28;20079;-81
2023/08/25 02:54:13;;;;;;;0.20;0.00;;;;;;;;;;5013613;28;20038;-81
2023/08/25 02:56:39;;;;;;;1.25;1.15;;;;;;;;;;4997992;28;20044;-81
2023/08/25 02:59:05;;;;;;;0.47;0.47;;;;;;;;;;5004782;28;20525;-82
2023/08/25 03:01:31;;;;;;;0.73;0.47;;;;;;;;;;4988833;28;20437;-80
2023/08/25 03:03:57;;;;;;;0.70;0.28;;;;;;;;;;5009433;28;20084;-81
2023/08/25 03:06:23;;;;;;;1.42;0.90;;;;;;;;;;5006054;28;20045;-81
2023/08/25 03:08:49;;;;;;;0.75;0.75;;;;;;;;;;5010625;28;20041;-81
2023/08/25 03:11:15;;;;;;;0.22;0.22;;;;;;;;;;4990116;28;20707;-81
2023/08/25 03:13:41;;;;;;;0.40;0.38;;;;;;;;;;4981862;28;20033;-81
2023/08/25 03:16:07;;;;;;;0.32;0.32;;;;;;;;;;4996901;28;20514;-81
2023/08/25 03:18:34;;;;;;;0.20;0.10;;;;;;;;;;4976514;28;20566;-82
2023/08/25 03:21:00;;;;;;;0.43;0.20;;;;;;;;;;5000411;28;20034;-80
2023/08/25 03:23:26;;;;;;;0.70;0.52;;;;;;;;;;5001572;28;20052;-80
2023/08/25 03:25:52;;;;;;;0.57;0.57;;;;;;;;;;5004378;28;20042;-81
2023/08/25 03:28:18;;;;;;;0.20;0.20;;;;;;;;;;5001853;28;20053;-80
2023/08/25 03:30:44;;;;;;;0.68;0.60;;;;;;;;;;4982338;28;20041;-81
2023/08/25 03:33:10;;;;;;;2.10;1.08;;;;;;;;;;4991627;28;20049;-80
2023/08/25 03:35:36;;;;;;;0.70;0.60;;;;;;;;;;4999728;28;20038;-80
2023/08/25 03:38:02;;;;;;;0.85;0.82;;;;;;;;;;4998857;28;20046;-80
2023/08/25 03:40:28;;;;;;;0.32;0.32;;;;;;;;;;4981202;28;20041;-80
2023/08/25 03:42:55;;;;;;;0.55;0.55;;;;;;;;;;5001808;28;20034;-80
2023/08/25 03:45:21;;;;;;;0.20;0.20;;;;;;;;;;5001881;28;20103;-80
2023/08/25 03:47:47;;;;;;;0.82;0.30;;;;;;;;;;5001562;28;20095;-81
2023/08/25 03:50:13;;;;;;;0.30;0.30;;;;;;;;;;4984350;28;20104;-80
2023/08/25 03:52:39;;;;;;;0.50;0.40;;;;;;;;;;5000732;28;20132;-81
2023/08/25 03:55:06;;;;;;;0.28;0.28;;;;;;;;;;5007314;28;20046;-80
2023/08/25 03:57:32;;;;;;;0.43;0.43;;;;;;;;;;4988807;28;20046;-80
2023/08/25 03:59:58;;;;;;;0.40;0.38;;;;;;;;;;4987728;28;20156;-80
2023/08/25 04:02:24;;;;;;;2.38;0.85;;;;;;;;;;4991135;28;20812;-81
2023/08/25 04:04:50;;;;;;;0.45;0.32;;;;;;;;;;4989896;28;20049;-80
2023/08/25 04:07:16;;;;;;;0.75;0.43;;;;;;;;;;5037560;28;20038;-81
2023/08/25 04:09:42;;;;;;;1.08;0.57;;;;;;;;;;5006236;28;20243;-81
2023/08/25 04:12:08;;;;;;;1.55;0.80;;;;;;;;;;5004124;28;20044;-83
2023/08/25 04:14:34;;;;;;;0.40;0.30;;;;;;;;;;4987047;28;20120;-81
2023/08/25 04:17:00;;;;;;;0.77;0.45;;;;;;;;;;4988885;28;20525;-81
2023/08/25 04:19:26;;;;;;;0.40;0.40;;;;;;;;;;5002548;28;20052;-81
2023/08/25 04:21:52;;;;;;;0.55;0.45;;;;;;;;;;5007861;28;20089;-81
2023/08/25 04:24:19;;;;;;;0.30;0.30;;;;;;;;;;5008165;28;20139;-81
2023/08/25 04:26:45;;;;;;;0.95;0.88;;;;;;;;;;4990939;28;20045;-81
2023/08/25 04:29:11;;;;;;;0.60;0.28;;;;;;;;;;5010768;28;20041;-81
2023/08/25 04:31:37;;;;;;;0.60;0.60;;;;;;;;;;5004072;28;20046;-81
2023/08/25 04:34:05;;;;;;;0.20;0.15;;;;;;;;;;5007320;28;20107;-81
2023/08/25 04:36:32;;;;;;;0.30;0.20;;;;;;;;;;5006942;28;20486;-80
2023/08/25 04:38:58;;;;;;;0.50;0.28;;;;;;;;;;4999739;28;20052;-80
2023/08/25 04:41:24;;;;;;;0.80;0.80;;;;;;;;;;5001697;28;21429;-81
2023/08/25 04:43:50;;;;;;;0.57;0.57;;;;;;;;;;5003941;28;20544;-80
2023/08/25 04:46:16;;;;;;;1.45;0.63;;;;;;;;;;5004090;28;20133;-81
2023/08/25 04:48:45;;;;;;;0.82;0.47;;;;;;;;;;4982317;28;20576;-80
2023/08/25 04:51:12;;;;;;;0.30;0.30;;;;;;;;;;5016816;28;20049;-80
2023/08/25 04:53:38;;;;;;;0.60;0.20;;;;;;;;;;4984340;28;20045;-80
2023/08/25 04:56:04;;;;;;;1.08;1.00;;;;;;;;;;5004672;28;20368;-80
2023/08/25 04:58:31;;;;;;;0.20;0.10;;;;;;;;;;5004686;28;20049;-80
2023/08/25 05:00:57;;;;;;;1.95;0.55;;;;;;;;;;5004663;28;20040;-81
2023/08/25 05:03:23;;;;;;;0.82;0.40;;;;;;;;;;4992190;28;20064;-81
2023/08/25 05:05:49;;;;;;;0.30;0.25;;;;;;;;;;4995134;28;20080;-82
2023/08/25 05:08:15;;;;;;;0.95;0.63;;;;;;;;;;4989333;28;20041;-82
2023/08/25 05:10:41;;;;;;;0.25;0.25;;;;;;;;;;4997921;28;20041;-82
2023/08/25 05:13:07;;;;;;;0.55;0.30;;;;;;;;;;4991810;28;21197;-83
2023/08/25 05:15:33;;;;;;;0.55;0.45;;;;;;;;;;4990725;28;20033;-81
2023/08/25 05:17:59;;;;;;;0.55;0.20;;;;;;;;;;4981439;28;20046;-81
2023/08/25 05:20:25;;;;;;;0.20;0.20;;;;;;;;;;4987315;28;20046;-81
2023/08/25 05:22:51;;;;;;;0.20;0.20;;;;;;;;;;4992673;28;20042;-81
2023/08/25 05:25:20;;;;;;;0.50;0.38;;;;;;;;;;5041750;28;20100;-81
2023/08/25 05:27:47;;;;;;;0.90;0.82;;;;;;;;;;5006091;28;20383;-81
2023/08/25 05:30:13;;;;;;;0.20;0.20;;;;;;;;;;5017241;28;20045;-83
2023/08/25 05:32:39;;;;;;;0.22;0.22;;;;;;;;;;4984360;28;20601;-82
2023/08/25 05:35:05;;;;;;;1.35;0.63;;;;;;;;;;5011350;28;20050;-81
2023/08/25 05:37:33;;;;;;;2.55;1.05;;;;;;;;;;5015552;28;20045;-81
2023/08/25 05:39:59;;;;;;;0.98;0.90;;;;;;;;;;5002278;28;20062;-81
2023/08/25 05:42:27;;;;;;;0.38;0.32;;;;;;;;;;5002951;28;20313;-81
2023/08/25 05:44:53;;;;;;;1.65;0.55;;;;;;;;;;5002171;28;20034;-83
2023/08/25 05:47:20;;;;;;;0.32;0.30;;;;;;;;;;5005725;28;20065;-82
2023/08/25 05:49:46;;;;;;;0.28;0.28;;;;;;;;;;4983621;28;20034;-83
2023/08/25 05:52:12;;;;;;;0.95;0.30;;;;;;;;;;5005172;28;20038;-82
2023/08/25 05:54:38;;;;;;;0.30;0.30;;;;;;;;;;5003886;28;20129;-82
2023/08/25 05:57:04;;;;;;;0.90;0.63;;;;;;;;;;4992658;28;20558;-84
2023/08/25 05:59:34;;;;;;;0.40;0.40;;;;;;;;;;4988855;28;20565;-84
2023/08/25 06:02:00;;;;;;;0.43;0.22;;;;;;;;;;4991229;28;20037;-82
2023/08/25 06:04:26;;;;;;;0.55;0.55;;;;;;;;;;4992693;28;20117;-83
2023/08/25 06:06:52;;;;;;;0.40;0.40;;;;;;;;;;5001593;28;20045;-83
2023/08/25 06:09:19;;;;;;;0.20;0.17;;;;;;;;;;4995233;28;20489;-81
2023/08/25 06:11:45;;;;;;;1.13;0.65;;;;;;;;;;5040317;28;20613;-82
2023/08/25 06:14:12;;;;;;;0.30;0.20;;;;;;;;;;5000257;28;20125;-82
2023/08/25 06:16:44;;;;;;;0.20;0.20;;;;;;;;;;5001084;28;20117;-82
2023/08/25 06:19:10;;;;;;;0.32;0.28;;;;;;;;;;4987531;28;20048;-83
2023/08/25 06:21:36;;;;;;;0.20;0.10;;;;;;;;;;4991481;28;20038;-83
2023/08/25 06:24:03;;;;;;;0.50;0.35;;;;;;;;;;5025076;28;20034;-84
2023/08/25 06:26:29;;;;;;;0.28;0.28;;;;;;;;;;5016951;28;20049;-82
2023/08/25 06:28:56;;;;;;;0.25;0.25;;;;;;;;;;4980788;28;20275;-84
2023/08/25 06:31:22;;;;;;;0.30;0.10;;;;;;;;;;4985653;28;20568;-84
2023/08/25 06:33:48;;;;;;;0.22;0.22;;;;;;;;;;4995937;28;20137;-82
2023/08/25 06:36:14;;;;;;;0.25;0.22;;;;;;;;;;5005073;28;20037;-85
2023/08/25 06:38:40;;;;;;;0.88;0.32;;;;;;;;;;4987895;28;20121;-83
2023/08/25 06:41:07;;;;;;;0.30;0.10;;;;;;;;;;5003488;28;20243;-82
2023/08/25 06:43:33;;;;;;;0.52;0.20;;;;;;;;;;4996315;28;20479;-83
2023/08/25 06:45:59;;;;;;;1.30;0.55;;;;;;;;;;5004535;28;20115;-81
2023/08/25 06:48:25;;;;;;;0.32;0.22;;;;;;;;;;4985977;28;20038;-83
2023/08/25 06:50:51;;;;;;;0.50;0.25;;;;;;;;;;5014729;28;20565;-83
2023/08/25 06:53:17;;;;;;;0.20;0.10;;;;;;;;;;5015491;28;20041;-81
2023/08/25 06:55:43;;;;;;;0.55;0.30;;;;;;;;;;5012085;28;20438;-81
2023/08/25 06:58:09;;;;;;;0.75;0.52;;;;;;;;;;5014867;28;20128;-81
2023/08/25 07:00:35;;;;;;;1.45;0.50;;;;;;;;;;5015716;28;20049;-81
2023/08/25 07:03:03;;;;;;;0.20;0.10;;;;;;;;;;5011155;28;20056;-82
2023/08/25 07:05:29;;;;;;;0.55;0.55;;;;;;;;;;5011167;28;20128;-80
2023/08/25 07:07:55;;;;;;;0.20;0.20;;;;;;;;;;5010772;28;20540;-81
2023/08/25 07:10:21;;;;;;;0.45;0.30;;;;;;;;;;5008154;28;20095;-82
2023/08/25 07:12:48;;;;;;;1.00;0.65;;;;;;;;;;5006204;28;20045;-81
2023/08/25 07:15:14;;;;;;;0.68;0.50;;;;;;;;;;5026944;28;20042;-81
2023/08/25 07:17:40;;;;;;;0.63;0.63;;;;;;;;;;4999618;28;20034;-81
2023/08/25 07:20:08;;;;;;;0.57;0.38;;;;;;;;;;5006913;28;20490;-80
2023/08/25 07:22:34;;;;;;;0.50;0.35;;;;;;;;;;5007038;28;20037;-80
2023/08/25 07:25:00;;;;;;;0.57;0.50;;;;;;;;;;5004328;28;20037;-81
2023/08/25 07:27:26;;;;;;;0.20;0.10;;;;;;;;;;4998603;28;20040;-80
2023/08/25 07:29:53;;;;;;;0.22;0.15;;;;;;;;;;5019711;28;20211;-80
2023/08/25 07:32:19;;;;;;;0.20;0.20;;;;;;;;;;4993189;28;20037;-81
2023/08/25 07:34:45;;;;;;;2.05;0.68;;;;;;;;;;4990583;28;20030;-80
2023/08/25 07:37:12;;;;;;;0.47;0.28;;;;;;;;;;4988465;28;20297;-81
2023/08/25 07:39:39;;;;;;;0.20;0.20;;;;;;;;;;5005045;28;20426;-80
2023/08/25 07:42:06;;;;;;;0.52;0.45;;;;;;;;;;5002586;28;20266;-82
2023/08/25 07:44:32;;;;;;;0.25;0.20;;;;;;;;;;5010077;28;20040;-81
2023/08/25 07:46:58;;;;;;;0.20;0.20;;;;;;;;;;5051103;28;20234;-80
2023/08/25 07:49:24;;;;;;;0.20;0.17;;;;;;;;;;5003432;28;20323;-82
2023/08/25 07:51:50;;;;;;;0.50;0.20;;;;;;;;;;5018174;28;20048;-81
2023/08/25 07:54:16;;;;;;;0.20;0.13;;;;;;;;;;5002656;28;20057;-81
2023/08/25 07:56:42;;;;;;;0.52;0.30;;;;;;;;;;5004695;28;20057;-81
2023/08/25 07:59:10;;;;;;;0.20;0.20;;;;;;;;;;5009072;28;20066;-82
2023/08/25 08:01:36;;;;;;;0.50;0.50;;;;;;;;;;4999585;28;20048;-82
2023/08/25 08:04:03;;;;;;;0.57;0.40;;;;;;;;;;5035474;28;20065;-82
2023/08/25 08:06:29;;;;;;;0.28;0.28;;;;;;;;;;5004016;28;20096;-83
2023/08/25 08:08:56;;;;;;;0.32;0.20;;;;;;;;;;5023476;28;20038;-82
2023/08/25 08:11:22;;;;;;;0.63;0.43;;;;;;;;;;5000494;28;20053;-80
2023/08/25 08:13:48;;;;;;;0.47;0.40;;;;;;;;;;5014319;28;21669;-82
2023/08/25 08:16:14;;;;;;;0.30;0.20;;;;;;;;;;5032474;22;20045;-85
2023/08/25 08:18:40;;;;;;;0.80;0.32;;;;;;;;;;5018353;28;20073;-83
2023/08/25 08:21:06;;;;;;;0.85;0.35;;;;;;;;;;5016112;28;20034;-85
2023/08/25 08:23:32;;;;;;;0.63;0.43;;;;;;;;;;5022879;28;20038;-84
2023/08/25 08:25:59;;;;;;;0.20;0.10;;;;;;;;;;5013238;28;20526;-84
2023/08/25 08:28:25;;;;;;;0.50;0.40;;;;;;;;;;5019627;28;20102;-83
2023/08/25 08:30:51;;;;;;;0.20;0.10;;;;;;;;;;5013827;28;20127;-84
2023/08/25 08:33:18;;;;;;;0.63;0.50;;;;;;;;;;5021748;28;20544;-84
2023/08/25 08:35:44;;;;;;;0.43;0.32;;;;;;;;;;5007181;28;20041;-83
2023/08/25 08:38:10;;;;;;;0.50;0.32;;;;;;;;;;5003931;28;20049;-84
2023/08/25 08:40:36;;;;;;;1.23;0.65;;;;;;;;;;5001003;28;20047;-85
2023/08/25 08:43:03;;;;;;;0.20;0.10;;;;;;;;;;5002955;28;20048;-84
2023/08/25 08:45:34;;;;;;;1.00;0.40;;;;;;;;;;5009734;28;20073;-84
2023/08/25 08:48:06;;;;;;;0.30;0.30;;;;;;;;;;5019571;28;20057;-84
2023/08/25 08:50:32;;;;;;;;;;;;;;;;;;4992217;28;20049;-84
2023/08/25 08:52:59;;;;;;;0.80;0.80;;;;;;;;;;5008071;28;19916;-85
2023/08/25 08:55:26;;;;;;;4.82;0.55;;;;;;;;;;5011000;28;20125;-86
2023/08/25 08:57:52;;;;;;;0.57;0.30;;;;;;;;;;4991570;28;20046;-84
2023/08/25 09:00:18;;;;;;;0.85;0.32;;;;;;;;;;4996174;28;20045;-85
2023/08/25 09:02:50;;;;;;;0.65;0.43;;;;;;;;;;4999431;28;20540;-86
2023/08/25 09:05:18;;;;;;;0.32;0.32;;;;;;;;;;5005220;28;20061;-85
2023/08/25 09:07:47;;;;;;;0.40;0.40;;;;;;;;;;5000450;28;20046;-84
2023/08/25 09:10:13;;;;;;;0.30;0.30;;;;;;;;;;4996976;28;20521;-84
2023/08/25 09:12:39;;;;;;;0.20;0.17;;;;;;;;;;4997377;28;20062;-85
2023/08/25 09:15:07;;;;;;;0.50;0.30;;;;;;;;;;4995406;28;20746;-84
2023/08/25 09:17:35;;;;;;;0.20;0.10;;;;;;;;;;5002358;28;20068;-85
2023/08/25 09:20:05;;;;;;;0.50;0.50;;;;;;;;;;4993057;28;20490;-85
2023/08/25 09:22:31;;;;;;;0.57;0.50;;;;;;;;;;5001581;28;20037;-86
2023/08/25 09:25:01;;;;;;;0.25;0.20;;;;;;;;;;4992754;28;20041;-85
2023/08/25 09:27:27;;;;;;;1.38;0.77;;;;;;;;;;4997789;28;20037;-85
2023/08/25 09:30:03;;;;;;;1.13;0.28;;;;;;;;;;4989615;28;20038;-85
2023/08/25 09:32:29;;;;;;;0.47;0.47;;;;;;;;;;5009751;28;20069;-85
2023/08/25 09:34:56;;;;;;;0.20;0.10;;;;;;;;;;4996288;28;20261;-85
2023/08/25 09:37:22;;;;;;;0.60;0.57;;;;;;;;;;4998084;28;20129;-85
2023/08/25 09:39:51;;;;;;;0.57;0.40;;;;;;;;;;5012190;28;20419;-86
2023/08/25 09:42:20;;;;;;;0.20;0.20;;;;;;;;;;4990853;28;20509;-86
2023/08/25 09:44:46;;;;;;;0.70;0.47;;;;;;;;;;5012838;28;20449;-86
2023/08/25 09:47:15;;;;;;;0.47;0.47;;;;;;;;;;5004569;28;20073;-85
2023/08/25 09:49:42;;;;;;;0.52;0.45;;;;;;;;;;4998893;28;20083;-84
2023/08/25 09:52:10;;;;;;;0.45;0.45;;;;;;;;;;5004548;28;20045;-85
2023/08/25 09:54:36;;;;;;;1.00;0.20;;;;;;;;;;4997513;28;20050;-84
2023/08/25 09:57:02;;;;;;;1.20;0.65;;;;;;;;;;4994885;28;20044;-84
2023/08/25 09:59:28;;;;;;;0.30;0.30;;;;;;;;;;4990645;28;20046;-86
2023/08/25 10:01:54;;;;;;;0.40;0.30;;;;;;;;;;4998296;28;20441;-84
2023/08/25 10:04:22;;;;;;;0.65;0.20;;;;;;;;;;5004617;28;20687;-85
2023/08/25 10:06:48;;;;;;;0.40;0.40;;;;;;;;;;5007034;28;20042;-85
2023/08/25 10:09:15;;;;;;;0.32;0.25;;;;;;;;;;4999102;28;20439;-85
2023/08/25 10:11:44;;;;;;;0.20;0.10;;;;;;;;;;4994157;28;20053;-86
2023/08/25 10:14:11;;;;;;;0.95;0.90;;;;;;;;;;5013189;28;20494;-85
2023/08/25 10:16:45;;;;;;;0.20;0.20;;;;;;;;;;5016708;28;20038;-85
2023/08/25 10:19:15;;;;;;;0.32;0.32;;;;;;;;;;4992148;28;20494;-86
2023/08/25 10:21:44;;;;;;;1.70;1.20;;;;;;;;;;5001596;28;20498;-85
2023/08/25 10:24:12;;;;;;;0.20;0.10;;;;;;;;;;5001676;28;20116;-86
2023/08/25 10:26:38;;;;;;;0.63;0.50;;;;;;;;;;5010213;28;20049;-87
2023/08/25 10:29:05;;;;;;;0.52;0.52;;;;;;;;;;5007824;28;20603;-87
2023/08/25 10:31:32;;;;;;;0.38;0.38;;;;;;;;;;5001401;28;20628;-85
2023/08/25 10:33:59;;;;;;;0.40;0.30;;;;;;;;;;5002608;28;20053;-86
2023/08/25 10:36:26;;;;;;;0.32;0.30;;;;;;;;;;5006076;28;20052;-86
2023/08/25 10:38:55;;;;;;;0.25;0.25;;;;;;;;;;5001597;28;20044;-86
2023/08/25 10:41:23;;;;;;;0.77;0.52;;;;;;;;;;5011983;28;20044;-85
2023/08/25 10:43:53;;;;;;;0.90;0.70;;;;;;;;;;4995992;28;20379;-85
2023/08/25 10:46:29;;;;;;;0.25;0.20;;;;;;;;;;4993075;28;20045;-86
2023/08/25 10:49:03;;;;;;;0.30;0.20;;;;;;;;;;4996358;28;20364;-86
2023/08/25 10:51:29;;;;;;;0.47;0.38;;;;;;;;;;4998292;28;20051;-85
2023/08/25 10:53:55;;;;;;;0.20;0.10;;;;;;;;;;5008112;28;20050;-86
2023/08/25 10:56:26;;;;;;;0.20;0.10;;;;;;;;;;5009220;28;20068;-86
2023/08/25 10:58:56;;;;;;;0.73;0.40;;;;;;;;;;4989914;28;20144;-86
2023/08/25 11:01:38;;;;;;;1.27;0.60;;;;;;;;;;5000554;28;20453;-86
2023/08/25 11:04:11;;;;;;;0.80;0.80;;;;;;;;;;4992552;28;20475;-86
2023/08/25 11:06:40;;;;;;;0.70;0.50;;;;;;;;;;5011020;28;20069;-86
2023/08/25 11:09:10;;;;;;;0.52;0.30;;;;;;;;;;5008784;28;20042;-85
2023/08/25 11:11:38;;;;;;;0.73;0.55;;;;;;;;;;4992788;28;20658;-84
2023/08/25 11:14:07;;;;;;;1.65;0.68;;;;;;;;;;5006490;28;20038;-84
2023/08/25 11:16:33;;;;;;;0.45;0.10;;;;;;;;;;5007548;28;20113;-85
2023/08/25 11:18:59;;;;;;;0.20;0.10;;;;;;;;;;4991680;28;20117;-83
2023/08/25 11:21:26;;;;;;;0.25;0.20;;;;;;;;;;4995703;28;20068;-84
2023/08/25 11:23:53;;;;;;;0.30;0.30;;;;;;;;;;5009973;28;20420;-85
2023/08/25 11:26:19;;;;;;;0.60;0.20;;;;;;;;;;4994914;28;20406;-85
2023/08/25 11:28:49;;;;;;;0.68;0.30;;;;;;;;;;5006407;28;20084;-84
2023/08/25 11:31:16;;;;;;;0.40;0.40;;;;;;;;;;4992581;28;20037;-89
2023/08/25 11:33:42;;;;;;;0.30;0.20;;;;;;;;;;5009811;28;20455;-85
2023/08/25 11:36:08;;;;;;;0.20;0.10;;;;;;;;;;4991267;28;20124;-87
2023/08/25 11:38:34;;;;;;;0.70;0.47;;;;;;;;;;4995357;28;20459;-87
2023/08/25 11:41:00;;;;;;;0.20;0.15;;;;;;;;;;5011162;28;20443;-85
2023/08/25 11:43:32;;;;;;;0.50;0.50;;;;;;;;;;4991971;28;20038;-85
2023/08/25 11:45:59;;;;;;;0.43;0.32;;;;;;;;;;5016422;28;20047;-85
2023/08/25 11:48:25;;;;;;;0.20;0.13;;;;;;;;;;5001598;28;20045;-85
2023/08/25 11:50:54;;;;;;;0.40;0.22;;;;;;;;;;4997212;28;20406;-84
2023/08/25 11:53:20;;;;;;;0.60;0.40;;;;;;;;;;4983595;28;20167;-84
2023/08/25 11:56:03;;;;;;;0.22;0.15;;;;;;;;;;4998359;28;20044;-84
2023/08/25 11:58:32;;;;;;;0.25;0.15;;;;;;;;;;5015233;28;20069;-87
2023/08/25 12:00:59;;;;;;;0.68;0.30;;;;;;;;;;4995866;28;20644;-85
2023/08/25 12:03:25;;;;;;;0.25;0.20;;;;;;;;;;5008078;28;20080;-85
2023/08/25 12:05:52;;;;;;;0.20;0.20;;;;;;;;;;5011301;28;20494;-86
2023/08/25 12:08:18;;;;;;;0.25;0.13;;;;;;;;;;4996589;28;20422;-87
2023/08/25 12:10:44;;;;;;;0.35;0.35;;;;;;;;;;4999561;28;20041;-84
2023/08/25 12:13:10;;;;;;;0.20;0.10;;;;;;;;;;5025375;28;20846;-85
2023/08/25 12:15:40;;;;;;;0.20;0.10;;;;;;;;;;4996539;28;20038;-84
2023/08/25 12:18:07;;;;;;;0.52;0.30;;;;;;;;;;5007710;28;20042;-84
2023/08/25 12:20:33;;;;;;;0.20;0.10;;;;;;;;;;5003684;28;20144;-84
2023/08/25 12:23:02;;;;;;;0.28;0.20;;;;;;;;;;5001650;28;20116;-85
2023/08/25 12:25:30;;;;;;;0.47;0.30;;;;;;;;;;5014643;28;20056;-85
2023/08/25 12:27:56;;;;;;;0.20;0.13;;;;;;;;;;4998174;28;20053;-85
2023/08/25 12:30:22;;;;;;;0.30;0.20;;;;;;;;;;5000967;28;20038;-84
2023/08/25 12:32:48;;;;;;;0.25;0.15;;;;;;;;;;4995895;28;20049;-86
2023/08/25 12:35:14;;;;;;;0.25;0.20;;;;;;;;;;4996923;28;20409;-85
2023/08/25 12:37:41;;;;;;;0.20;0.10;;;;;;;;;;5003819;28;20057;-85
2023/08/25 12:40:07;;;;;;;0.20;0.20;;;;;;;;;;4987198;28;20136;-86
2023/08/25 12:42:36;;;;;;;0.35;0.30;;;;;;;;;;5014161;28;20034;-85
2023/08/25 12:45:02;;;;;;;0.30;0.20;;;;;;;;;;4994352;28;20042;-85
2023/08/25 12:47:28;;;;;;;0.20;0.10;;;;;;;;;;5001135;28;20041;-84
2023/08/25 12:49:54;;;;;;;0.60;0.30;;;;;;;;;;5003552;28;20060;-84
2023/08/25 12:52:20;;;;;;;0.20;0.10;;;;;;;;;;4995072;28;20735;-85
2023/08/25 12:54:46;;;;;;;0.82;0.32;;;;;;;;;;4998852;28;20042;-85
2023/08/25 12:57:12;;;;;;;0.20;0.10;;;;;;;;;;4998165;28;20112;-85
2023/08/25 12:59:41;;;;;;;0.20;0.10;;;;;;;;;;4994186;28;20057;-86
2023/08/25 13:02:08;;;;;;;0.20;0.00;;;;;;;;;;4996783;28;20140;-85
2023/08/25 13:04:34;;;;;;;0.20;0.00;;;;;;;;;;5014601;28;20585;-84
2023/08/25 13:07:00;;;;;;;0.50;0.20;;;;;;;;;;4992482;28;20069;-85
2023/08/25 13:09:26;;;;;;;0.20;0.20;;;;;;;;;;4994958;28;20033;-85
2023/08/25 13:11:52;;;;;;;0.57;0.20;;;;;;;;;;4998998;28;20116;-85
2023/08/25 13:14:18;;;;;;;0.20;0.10;;;;;;;;;;4998897;28;20402;-85
2023/08/25 13:16:44;;;;;;;0.20;0.00;;;;;;;;;;5000145;28;20506;-83
2023/08/25 13:19:13;;;;;;;0.20;0.05;;;;;;;;;;5007722;28;20585;-86
2023/08/25 13:21:39;;;;;;;0.20;0.10;;;;;;;;;;4994568;28;20047;-84
2023/08/25 13:24:05;;;;;;;0.20;0.10;;;;;;;;;;5010826;28;20061;-86
2023/08/25 13:26:33;;;;;;;0.20;0.10;;;;;;;;;;4998850;28;20050;-86
2023/08/25 13:29:00;;;;;;;0.20;0.10;;;;;;;;;;5002276;28;20057;-85
2023/08/25 13:31:26;;;;;;;0.20;0.10;;;;;;;;;;5000410;28;20044;-87
2023/08/25 13:33:53;;;;;;;0.20;0.10;;;;;;;;;;4988446;28;20439;-86
2023/08/25 13:36:21;;;;;;;0.20;0.20;;;;;;;;;;5001569;28;20052;-88
2023/08/25 13:38:50;;;;;;;0.22;0.13;;;;;;;;;;4999146;28;20482;-89
2023/08/25 13:41:24;;;;;;;0.20;0.10;;;;;;;;;;4995856;28;20540;-87
2023/08/25 13:44:03;;;;;;;0.20;0.10;;;;;;;;;;5018399;28;20129;-88
2023/08/25 13:53:27;;;;;;;0.47;0.30;;;;;;;;;;4960465;28;20127;-88
2023/08/25 13:59:53;;;;;;;0.20;0.10;;;;;;;;;;4965894;28;20217;-88
2023/08/25 14:06:19;;;;;;;0.20;0.00;;;;;;;;;;4936280;28;20087;-88
2023/08/25 14:11:58;;;;;;;0.20;0.10;;;;;;;;;;4907832;29;20628;-88
2023/08/25 14:14:32;;;;;;;0.90;0.52;;;;;;;;;;4911231;29;20055;-87
2023/08/25 14:17:08;;;;;;;0.30;0.22;;;;;;;;;;5034843;28;20084;-82
2023/08/25 14:19:34;;;;;;;0.28;0.20;;;;;;;;;;5001170;28;20046;-83
2023/08/25 14:22:00;;;;;;;0.20;0.10;;;;;;;;;;5021982;28;20586;-81
2023/08/25 14:24:27;;;;;;;0.20;0.10;;;;;;;;;;5012201;28;20165;-82
2023/08/25 14:26:53;;;;;;;0.28;0.17;;;;;;;;;;5002110;28;20076;-83
2023/08/25 14:29:19;;;;;;;0.20;0.10;;;;;;;;;;5013253;28;20262;-83
2023/08/25 14:31:45;;;;;;;0.20;0.10;;;;;;;;;;5001850;28;20037;-83
2023/08/25 14:34:11;;;;;;;1.20;0.40;;;;;;;;;;5007396;28;20033;-83
2023/08/25 14:36:37;;;;;;;0.75;0.50;;;;;;;;;;5013447;28;20496;-83
2023/08/25 14:39:03;;;;;;;0.57;0.57;;;;;;;;;;4999310;28;20137;-83
2023/08/25 14:41:29;;;;;;;0.20;0.13;;;;;;;;;;5012239;28;20045;-82
2023/08/25 14:43:55;;;;;;;0.45;0.30;;;;;;;;;;5009950;28;20037;-83
2023/08/25 14:46:22;;;;;;;0.20;0.10;;;;;;;;;;4978461;28;20462;-83
2023/08/25 14:48:48;;;;;;;0.90;0.20;;;;;;;;;;5010245;28;20052;-83
2023/08/25 14:51:18;;;;;;;0.32;0.32;;;;;;;;;;5014787;28;20461;-83
2023/08/25 14:53:44;;;;;;;0.40;0.40;;;;;;;;;;5009901;28;20176;-82
2023/08/25 14:56:10;;;;;;;0.35;0.35;;;;;;;;;;5011855;28;20037;-82
2023/08/25 14:58:36;;;;;;;0.30;0.20;;;;;;;;;;5014809;28;20096;-81
2023/08/25 15:01:04;;;;;;;0.40;0.40;;;;;;;;;;5011063;28;20041;-82
2023/08/25 15:03:30;;;;;;;0.20;0.20;;;;;;;;;;5011929;28;20041;-81